sensor_id;sensor_type;location;lat;lon;timestamp;P1;durP1;ratioP1;P2;durP2;ratioP2
55364;SDS011;41245;45.384;20.390;2023-09-19T00:00:23;8.15;;;4.30;;
55364;SDS011;41245;45.384;20.390;2023-09-19T00:05:24;10.68;;;4.63;;
55364;SDS011;41245;45.384;20.390;2023-09-19T00:07:54;10.20;;;6.85;;
55364;SDS011;41245;45.384;20.390;2023-09-19T00:10:23;12.82;;;6.55;;
55364;SDS011;41245;45.384;20.390;2023-09-19T00:12:53;11.30;;;5.93;;
55364;SDS011;41245;45.384;20.390;2023-09-19T00:15:23;14.05;;;6.90;;
55364;SDS011;41245;45.384;20.390;2023-09-19T00:17:51;15.32;;;8.23;;
55364;SDS011;41245;45.384;20.390;2023-09-19T00:20:19;18.13;;;8.45;;
55364;SDS011;41245;45.384;20.390;2023-09-19T00:22:48;12.32;;;7.63;;
55364;SDS011;41245;45.384;20.390;2023-09-19T00:25:15;12.02;;;7.47;;
55364;SDS011;41245;45.384;20.390;2023-09-19T00:27:41;8.98;;;7.13;;
55364;SDS011;41245;45.384;20.390;2023-09-19T00:30:11;9.88;;;7.82;;
55364;SDS011;41245;45.384;20.390;2023-09-19T00:32:45;18.92;;;8.52;;
55364;SDS011;41245;45.384;20.390;2023-09-19T00:35:15;13.25;;;6.85;;
55364;SDS011;41245;45.384;20.390;2023-09-19T00:37:40;12.70;;;6.63;;
55364;SDS011;41245;45.384;20.390;2023-09-19T00:40:07;23.90;;;6.00;;
55364;SDS011;41245;45.384;20.390;2023-09-19T00:42:43;6.55;;;4.25;;
55364;SDS011;41245;45.384;20.390;2023-09-19T00:45:11;6.78;;;4.07;;
55364;SDS011;41245;45.384;20.390;2023-09-19T00:47:48;8.65;;;3.70;;
55364;SDS011;41245;45.384;20.390;2023-09-19T00:50:15;9.35;;;4.97;;
55364;SDS011;41245;45.384;20.390;2023-09-19T00:52:47;6.55;;;4.03;;
55364;SDS011;41245;45.384;20.390;2023-09-19T00:55:15;9.80;;;4.20;;
55364;SDS011;41245;45.384;20.390;2023-09-19T00:57:44;16.55;;;4.80;;
55364;SDS011;41245;45.384;20.390;2023-09-19T01:00:11;8.40;;;3.95;;
55364;SDS011;41245;45.384;20.390;2023-09-19T01:02:41;13.07;;;6.15;;
55364;SDS011;41245;45.384;20.390;2023-09-19T01:05:10;13.32;;;5.65;;
55364;SDS011;41245;45.384;20.390;2023-09-19T01:07:37;11.63;;;6.45;;
55364;SDS011;41245;45.384;20.390;2023-09-19T01:10:07;8.50;;;4.75;;
55364;SDS011;41245;45.384;20.390;2023-09-19T01:18:21;15.32;;;6.22;;
55364;SDS011;41245;45.384;20.390;2023-09-19T01:21:11;11.63;;;6.82;;
55364;SDS011;41245;45.384;20.390;2023-09-19T01:24:54;12.00;;;7.00;;
55364;SDS011;41245;45.384;20.390;2023-09-19T01:30:14;15.75;;;9.27;;
55364;SDS011;41245;45.384;20.390;2023-09-19T01:32:43;11.75;;;7.95;;
55364;SDS011;41245;45.384;20.390;2023-09-19T01:35:11;17.10;;;6.45;;
55364;SDS011;41245;45.384;20.390;2023-09-19T01:37:38;22.73;;;8.50;;
55364;SDS011;41245;45.384;20.390;2023-09-19T01:40:07;9.50;;;6.68;;
55364;SDS011;41245;45.384;20.390;2023-09-19T01:51:21;19.05;;;11.10;;
55364;SDS011;41245;45.384;20.390;2023-09-19T01:54:04;19.02;;;10.35;;
55364;SDS011;41245;45.384;20.390;2023-09-19T01:56:42;17.27;;;9.50;;
55364;SDS011;41245;45.384;20.390;2023-09-19T01:59:37;18.38;;;11.48;;
55364;SDS011;41245;45.384;20.390;2023-09-19T02:02:10;15.48;;;7.55;;
55364;SDS011;41245;45.384;20.390;2023-09-19T02:04:39;12.27;;;8.50;;
55364;SDS011;41245;45.384;20.390;2023-09-19T02:07:05;19.90;;;10.30;;
55364;SDS011;41245;45.384;20.390;2023-09-19T02:09:31;12.55;;;7.05;;
55364;SDS011;41245;45.384;20.390;2023-09-19T02:12:00;19.02;;;11.07;;
55364;SDS011;41245;45.384;20.390;2023-09-19T02:14:26;21.58;;;12.23;;
55364;SDS011;41245;45.384;20.390;2023-09-19T02:16:54;21.58;;;13.05;;
55364;SDS011;41245;45.384;20.390;2023-09-19T02:19:21;26.67;;;12.82;;
55364;SDS011;41245;45.384;20.390;2023-09-19T02:21:47;18.73;;;9.70;;
55364;SDS011;41245;45.384;20.390;2023-09-19T02:24:14;15.73;;;8.18;;
55364;SDS011;41245;45.384;20.390;2023-09-19T02:26:40;13.85;;;7.10;;
55364;SDS011;41245;45.384;20.390;2023-09-19T02:29:06;20.42;;;8.90;;
55364;SDS011;41245;45.384;20.390;2023-09-19T02:31:32;11.65;;;7.43;;
55364;SDS011;41245;45.384;20.390;2023-09-19T02:33:57;21.20;;;10.05;;
55364;SDS011;41245;45.384;20.390;2023-09-19T02:36:25;22.95;;;10.68;;
55364;SDS011;41245;45.384;20.390;2023-09-19T02:38:51;18.33;;;9.38;;
55364;SDS011;41245;45.384;20.390;2023-09-19T02:41:16;16.98;;;9.20;;
55364;SDS011;41245;45.384;20.390;2023-09-19T02:43:42;19.77;;;10.45;;
55364;SDS011;41245;45.384;20.390;2023-09-19T02:46:08;24.20;;;9.77;;
55364;SDS011;41245;45.384;20.390;2023-09-19T02:48:34;12.93;;;8.52;;
55364;SDS011;41245;45.384;20.390;2023-09-19T02:51:01;17.60;;;12.52;;
55364;SDS011;41245;45.384;20.390;2023-09-19T02:53:28;23.77;;;11.02;;
55364;SDS011;41245;45.384;20.390;2023-09-19T02:55:56;14.75;;;8.65;;
55364;SDS011;41245;45.384;20.390;2023-09-19T02:58:22;17.83;;;8.98;;
55364;SDS011;41245;45.384;20.390;2023-09-19T03:00:50;13.10;;;9.13;;
55364;SDS011;41245;45.384;20.390;2023-09-19T03:03:16;17.67;;;9.93;;
55364;SDS011;41245;45.384;20.390;2023-09-19T03:05:42;17.27;;;9.35;;
55364;SDS011;41245;45.384;20.390;2023-09-19T03:08:15;22.13;;;10.48;;
55364;SDS011;41245;45.384;20.390;2023-09-19T03:10:42;9.98;;;7.40;;
55364;SDS011;41245;45.384;20.390;2023-09-19T03:13:08;10.02;;;5.72;;
55364;SDS011;41245;45.384;20.390;2023-09-19T03:15:35;10.15;;;5.65;;
55364;SDS011;41245;45.384;20.390;2023-09-19T03:18:04;9.88;;;5.03;;
55364;SDS011;41245;45.384;20.390;2023-09-19T03:20:31;12.40;;;4.95;;
55364;SDS011;41245;45.384;20.390;2023-09-19T03:22:57;13.23;;;6.05;;
55364;SDS011;41245;45.384;20.390;2023-09-19T03:25:23;11.50;;;4.60;;
55364;SDS011;41245;45.384;20.390;2023-09-19T03:27:49;10.23;;;4.63;;
55364;SDS011;41245;45.384;20.390;2023-09-19T03:30:15;17.83;;;6.15;;
55364;SDS011;41245;45.384;20.390;2023-09-19T03:32:46;12.88;;;5.82;;
55364;SDS011;41245;45.384;20.390;2023-09-19T03:35:14;14.93;;;5.75;;
55364;SDS011;41245;45.384;20.390;2023-09-19T03:37:43;10.95;;;7.07;;
55364;SDS011;41245;45.384;20.390;2023-09-19T03:40:10;11.02;;;7.75;;
55364;SDS011;41245;45.384;20.390;2023-09-19T03:42:39;12.77;;;7.63;;
55364;SDS011;41245;45.384;20.390;2023-09-19T03:45:06;21.23;;;8.50;;
55364;SDS011;41245;45.384;20.390;2023-09-19T03:47:34;22.40;;;11.10;;
55364;SDS011;41245;45.384;20.390;2023-09-19T03:50:01;22.88;;;10.52;;
55364;SDS011;41245;45.384;20.390;2023-09-19T03:52:28;18.40;;;11.20;;
55364;SDS011;41245;45.384;20.390;2023-09-19T03:54:54;24.13;;;12.98;;
55364;SDS011;41245;45.384;20.390;2023-09-19T03:57:20;18.08;;;10.02;;
55364;SDS011;41245;45.384;20.390;2023-09-19T03:59:46;10.07;;;6.18;;
55364;SDS011;41245;45.384;20.390;2023-09-19T04:02:13;14.35;;;7.40;;
55364;SDS011;41245;45.384;20.390;2023-09-19T04:04:47;27.67;;;12.43;;
55364;SDS011;41245;45.384;20.390;2023-09-19T04:07:13;19.52;;;9.55;;
55364;SDS011;41245;45.384;20.390;2023-09-19T04:09:39;13.73;;;7.03;;
55364;SDS011;41245;45.384;20.390;2023-09-19T04:12:06;18.67;;;5.88;;
55364;SDS011;41245;45.384;20.390;2023-09-19T04:14:36;26.40;;;6.22;;
55364;SDS011;41245;45.384;20.390;2023-09-19T04:17:02;10.60;;;5.22;;
55364;SDS011;41245;45.384;20.390;2023-09-19T04:19:30;14.05;;;6.35;;
55364;SDS011;41245;45.384;20.390;2023-09-19T04:21:56;8.27;;;5.82;;
55364;SDS011;41245;45.384;20.390;2023-09-19T04:24:22;10.27;;;5.15;;
55364;SDS011;41245;45.384;20.390;2023-09-19T04:26:48;12.07;;;5.60;;
55364;SDS011;41245;45.384;20.390;2023-09-19T04:29:14;16.55;;;6.57;;
55364;SDS011;41245;45.384;20.390;2023-09-19T04:31:40;13.55;;;7.60;;
55364;SDS011;41245;45.384;20.390;2023-09-19T04:34:08;17.27;;;9.15;;
55364;SDS011;41245;45.384;20.390;2023-09-19T04:36:35;19.77;;;11.35;;
55364;SDS011;41245;45.384;20.390;2023-09-19T04:39:04;20.00;;;9.95;;
55364;SDS011;41245;45.384;20.390;2023-09-19T04:41:30;17.35;;;7.35;;
55364;SDS011;41245;45.384;20.390;2023-09-19T04:43:56;15.27;;;9.75;;
55364;SDS011;41245;45.384;20.390;2023-09-19T04:46:23;20.27;;;8.50;;
55364;SDS011;41245;45.384;20.390;2023-09-19T04:48:49;9.90;;;7.22;;
55364;SDS011;41245;45.384;20.390;2023-09-19T04:51:15;15.65;;;6.95;;
55364;SDS011;41245;45.384;20.390;2023-09-19T04:53:43;14.23;;;6.13;;
55364;SDS011;41245;45.384;20.390;2023-09-19T04:56:10;17.30;;;7.38;;
55364;SDS011;41245;45.384;20.390;2023-09-19T04:58:36;8.23;;;5.65;;
55364;SDS011;41245;45.384;20.390;2023-09-19T05:01:02;10.80;;;6.60;;
55364;SDS011;41245;45.384;20.390;2023-09-19T05:03:29;9.98;;;5.05;;
55364;SDS011;41245;45.384;20.390;2023-09-19T05:05:55;15.30;;;6.82;;
55364;SDS011;41245;45.384;20.390;2023-09-19T05:08:21;13.57;;;5.72;;
55364;SDS011;41245;45.384;20.390;2023-09-19T05:10:47;9.27;;;6.53;;
55364;SDS011;41245;45.384;20.390;2023-09-19T05:13:14;13.15;;;7.00;;
55364;SDS011;41245;45.384;20.390;2023-09-19T05:15:40;13.75;;;6.40;;
55364;SDS011;41245;45.384;20.390;2023-09-19T05:18:06;13.80;;;5.85;;
55364;SDS011;41245;45.384;20.390;2023-09-19T05:20:32;9.07;;;6.80;;
55364;SDS011;41245;45.384;20.390;2023-09-19T05:23:01;16.02;;;7.35;;
55364;SDS011;41245;45.384;20.390;2023-09-19T05:25:31;16.50;;;6.55;;
55364;SDS011;41245;45.384;20.390;2023-09-19T05:27:58;16.63;;;6.35;;
55364;SDS011;41245;45.384;20.390;2023-09-19T05:30:25;13.20;;;6.47;;
55364;SDS011;41245;45.384;20.390;2023-09-19T05:32:54;17.08;;;8.82;;
55364;SDS011;41245;45.384;20.390;2023-09-19T05:35:21;16.30;;;7.35;;
55364;SDS011;41245;45.384;20.390;2023-09-19T05:37:49;20.80;;;9.32;;
55364;SDS011;41245;45.384;20.390;2023-09-19T05:40:16;14.90;;;8.18;;
55364;SDS011;41245;45.384;20.390;2023-09-19T05:42:42;24.92;;;8.02;;
55364;SDS011;41245;45.384;20.390;2023-09-19T05:45:09;20.35;;;9.32;;
55364;SDS011;41245;45.384;20.390;2023-09-19T05:47:41;12.55;;;6.65;;
55364;SDS011;41245;45.384;20.390;2023-09-19T05:50:08;22.70;;;8.57;;
55364;SDS011;41245;45.384;20.390;2023-09-19T05:52:37;19.05;;;6.78;;
55364;SDS011;41245;45.384;20.390;2023-09-19T05:55:04;9.15;;;5.90;;
55364;SDS011;41245;45.384;20.390;2023-09-19T05:57:32;15.15;;;6.55;;
55364;SDS011;41245;45.384;20.390;2023-09-19T05:59:58;14.43;;;4.88;;
55364;SDS011;41245;45.384;20.390;2023-09-19T06:02:24;12.50;;;5.55;;
55364;SDS011;41245;45.384;20.390;2023-09-19T06:04:55;8.27;;;5.05;;
55364;SDS011;41245;45.384;20.390;2023-09-19T06:07:21;8.15;;;4.88;;
55364;SDS011;41245;45.384;20.390;2023-09-19T06:09:51;10.45;;;5.53;;
55364;SDS011;41245;45.384;20.390;2023-09-19T06:12:18;15.48;;;4.90;;
55364;SDS011;41245;45.384;20.390;2023-09-19T06:14:44;11.95;;;5.25;;
55364;SDS011;41245;45.384;20.390;2023-09-19T06:17:11;13.00;;;4.95;;
55364;SDS011;41245;45.384;20.390;2023-09-19T06:19:37;9.00;;;4.97;;
55364;SDS011;41245;45.384;20.390;2023-09-19T06:22:03;9.13;;;5.70;;
55364;SDS011;41245;45.384;20.390;2023-09-19T06:24:29;11.40;;;5.30;;
55364;SDS011;41245;45.384;20.390;2023-09-19T06:26:55;11.38;;;5.25;;
55364;SDS011;41245;45.384;20.390;2023-09-19T06:29:22;9.50;;;5.22;;
55364;SDS011;41245;45.384;20.390;2023-09-19T06:31:48;13.30;;;5.20;;
55364;SDS011;41245;45.384;20.390;2023-09-19T06:34:14;8.90;;;4.70;;
55364;SDS011;41245;45.384;20.390;2023-09-19T06:36:41;8.32;;;5.78;;
55364;SDS011;41245;45.384;20.390;2023-09-19T06:39:08;8.60;;;4.50;;
55364;SDS011;41245;45.384;20.390;2023-09-19T06:41:36;8.98;;;4.57;;
55364;SDS011;41245;45.384;20.390;2023-09-19T06:44:04;10.85;;;4.80;;
55364;SDS011;41245;45.384;20.390;2023-09-19T06:46:31;9.77;;;4.88;;
55364;SDS011;41245;45.384;20.390;2023-09-19T06:49:00;9.93;;;4.68;;
55364;SDS011;41245;45.384;20.390;2023-09-19T06:51:28;8.60;;;4.28;;
55364;SDS011;41245;45.384;20.390;2023-09-19T06:53:54;9.70;;;5.40;;
55364;SDS011;41245;45.384;20.390;2023-09-19T06:56:22;15.40;;;5.95;;
55364;SDS011;41245;45.384;20.390;2023-09-19T06:58:49;12.90;;;5.97;;
55364;SDS011;41245;45.384;20.390;2023-09-19T07:01:15;13.15;;;5.10;;
55364;SDS011;41245;45.384;20.390;2023-09-19T07:03:43;11.05;;;5.47;;
55364;SDS011;41245;45.384;20.390;2023-09-19T07:06:10;14.18;;;6.55;;
55364;SDS011;41245;45.384;20.390;2023-09-19T07:08:36;12.25;;;4.72;;
55364;SDS011;41245;45.384;20.390;2023-09-19T07:11:03;12.50;;;5.10;;
55364;SDS011;41245;45.384;20.390;2023-09-19T07:13:31;12.20;;;5.50;;
55364;SDS011;41245;45.384;20.390;2023-09-19T07:15:58;10.30;;;5.55;;
55364;SDS011;41245;45.384;20.390;2023-09-19T07:18:24;11.93;;;5.63;;
55364;SDS011;41245;45.384;20.390;2023-09-19T07:20:50;11.00;;;6.05;;
55364;SDS011;41245;45.384;20.390;2023-09-19T07:23:20;12.15;;;5.60;;
55364;SDS011;41245;45.384;20.390;2023-09-19T07:25:48;11.57;;;6.57;;
55364;SDS011;41245;45.384;20.390;2023-09-19T07:28:14;18.33;;;5.75;;
55364;SDS011;41245;45.384;20.390;2023-09-19T07:30:40;10.45;;;5.40;;
55364;SDS011;41245;45.384;20.390;2023-09-19T07:33:06;9.88;;;6.20;;
55364;SDS011;41245;45.384;20.390;2023-09-19T07:35:32;12.90;;;5.40;;
55364;SDS011;41245;45.384;20.390;2023-09-19T07:37:58;13.70;;;5.97;;
55364;SDS011;41245;45.384;20.390;2023-09-19T07:40:26;11.85;;;5.70;;
55364;SDS011;41245;45.384;20.390;2023-09-19T07:42:54;13.40;;;6.25;;
55364;SDS011;41245;45.384;20.390;2023-09-19T07:45:20;10.40;;;4.53;;
55364;SDS011;41245;45.384;20.390;2023-09-19T07:47:46;16.58;;;6.13;;
55364;SDS011;41245;45.384;20.390;2023-09-19T07:50:13;10.63;;;5.28;;
55364;SDS011;41245;45.384;20.390;2023-09-19T07:52:41;13.60;;;5.43;;
55364;SDS011;41245;45.384;20.390;2023-09-19T07:55:08;12.70;;;5.15;;
55364;SDS011;41245;45.384;20.390;2023-09-19T07:57:37;16.88;;;5.20;;
55364;SDS011;41245;45.384;20.390;2023-09-19T08:00:03;14.45;;;5.32;;
55364;SDS011;41245;45.384;20.390;2023-09-19T08:02:36;20.40;;;6.35;;
55364;SDS011;41245;45.384;20.390;2023-09-19T08:05:05;13.07;;;4.65;;
55364;SDS011;41245;45.384;20.390;2023-09-19T08:07:32;15.00;;;5.72;;
55364;SDS011;41245;45.384;20.390;2023-09-19T08:09:58;11.68;;;5.55;;
55364;SDS011;41245;45.384;20.390;2023-09-19T08:12:24;12.63;;;5.80;;
55364;SDS011;41245;45.384;20.390;2023-09-19T08:14:50;13.77;;;5.13;;
55364;SDS011;41245;45.384;20.390;2023-09-19T08:17:17;7.70;;;4.88;;
55364;SDS011;41245;45.384;20.390;2023-09-19T08:19:45;14.05;;;5.43;;
55364;SDS011;41245;45.384;20.390;2023-09-19T08:22:11;12.93;;;4.68;;
55364;SDS011;41245;45.384;20.390;2023-09-19T08:24:37;11.55;;;5.55;;
55364;SDS011;41245;45.384;20.390;2023-09-19T08:27:03;10.27;;;5.25;;
55364;SDS011;41245;45.384;20.390;2023-09-19T08:29:31;16.65;;;4.72;;
55364;SDS011;41245;45.384;20.390;2023-09-19T08:31:57;17.25;;;5.03;;
55364;SDS011;41245;45.384;20.390;2023-09-19T08:34:24;13.38;;;5.40;;
55364;SDS011;41245;45.384;20.390;2023-09-19T08:36:54;14.68;;;6.18;;
55364;SDS011;41245;45.384;20.390;2023-09-19T08:39:23;14.70;;;4.40;;
55364;SDS011;41245;45.384;20.390;2023-09-19T08:41:56;11.98;;;5.10;;
55364;SDS011;41245;45.384;20.390;2023-09-19T08:44:24;17.90;;;6.45;;
55364;SDS011;41245;45.384;20.390;2023-09-19T08:46:50;19.17;;;5.93;;
55364;SDS011;41245;45.384;20.390;2023-09-19T08:49:22;15.13;;;5.50;;
55364;SDS011;41245;45.384;20.390;2023-09-19T08:51:54;24.30;;;7.10;;
55364;SDS011;41245;45.384;20.390;2023-09-19T08:54:26;13.82;;;5.68;;
55364;SDS011;41245;45.384;20.390;2023-09-19T08:56:54;14.45;;;5.63;;
55364;SDS011;41245;45.384;20.390;2023-09-19T08:59:22;20.35;;;6.65;;
55364;SDS011;41245;45.384;20.390;2023-09-19T09:01:54;11.60;;;5.30;;
55364;SDS011;41245;45.384;20.390;2023-09-19T09:04:21;17.88;;;6.38;;
55364;SDS011;41245;45.384;20.390;2023-09-19T09:06:48;8.93;;;5.15;;
55364;SDS011;41245;45.384;20.390;2023-09-19T09:09:18;19.45;;;6.00;;
55364;SDS011;41245;45.384;20.390;2023-09-19T09:11:44;10.85;;;5.38;;
55364;SDS011;41245;45.384;20.390;2023-09-19T09:14:11;15.48;;;6.03;;
55364;SDS011;41245;45.384;20.390;2023-09-19T09:16:37;13.15;;;6.47;;
55364;SDS011;41245;45.384;20.390;2023-09-19T09:19:04;11.52;;;4.97;;
55364;SDS011;41245;45.384;20.390;2023-09-19T09:21:30;13.15;;;5.38;;
55364;SDS011;41245;45.384;20.390;2023-09-19T09:24:25;18.35;;;5.15;;
55364;SDS011;41245;45.384;20.390;2023-09-19T09:26:50;12.50;;;5.07;;
55364;SDS011;41245;45.384;20.390;2023-09-19T09:29:16;14.13;;;5.90;;
55364;SDS011;41245;45.384;20.390;2023-09-19T09:31:43;8.30;;;5.72;;
55364;SDS011;41245;45.384;20.390;2023-09-19T09:34:09;15.05;;;6.20;;
55364;SDS011;41245;45.384;20.390;2023-09-19T09:39:06;12.73;;;5.82;;
55364;SDS011;41245;45.384;20.390;2023-09-19T09:41:49;14.23;;;5.20;;
55364;SDS011;41245;45.384;20.390;2023-09-19T09:44:18;14.93;;;6.22;;
55364;SDS011;41245;45.384;20.390;2023-09-19T09:46:45;17.38;;;5.93;;
55364;SDS011;41245;45.384;20.390;2023-09-19T09:49:18;18.65;;;5.43;;
55364;SDS011;41245;45.384;20.390;2023-09-19T09:52:06;23.20;;;7.95;;
55364;SDS011;41245;45.384;20.390;2023-09-19T09:54:33;14.45;;;5.00;;
55364;SDS011;41245;45.384;20.390;2023-09-19T09:57:06;14.73;;;6.25;;
55364;SDS011;41245;45.384;20.390;2023-09-19T09:59:52;15.30;;;6.90;;
55364;SDS011;41245;45.384;20.390;2023-09-19T10:02:26;16.85;;;6.00;;
55364;SDS011;41245;45.384;20.390;2023-09-19T10:05:11;14.75;;;5.63;;
55364;SDS011;41245;45.384;20.390;2023-09-19T10:07:50;18.13;;;7.00;;
55364;SDS011;41245;45.384;20.390;2023-09-19T10:13:03;17.90;;;6.70;;
55364;SDS011;41245;45.384;20.390;2023-09-19T10:15:33;21.23;;;6.78;;
55364;SDS011;41245;45.384;20.390;2023-09-19T10:18:01;21.55;;;6.88;;
55364;SDS011;41245;45.384;20.390;2023-09-19T10:20:30;23.65;;;5.13;;
55364;SDS011;41245;45.384;20.390;2023-09-19T10:23:08;18.13;;;5.13;;
55364;SDS011;41245;45.384;20.390;2023-09-19T10:25:36;27.08;;;7.25;;
55364;SDS011;41245;45.384;20.390;2023-09-19T10:28:05;16.17;;;6.25;;
55364;SDS011;41245;45.384;20.390;2023-09-19T10:30:36;15.10;;;5.10;;
55364;SDS011;41245;45.384;20.390;2023-09-19T10:33:08;14.90;;;5.05;;
55364;SDS011;41245;45.384;20.390;2023-09-19T10:35:36;16.85;;;5.38;;
55364;SDS011;41245;45.384;20.390;2023-09-19T10:38:05;12.55;;;5.70;;
55364;SDS011;41245;45.384;20.390;2023-09-19T10:40:33;20.58;;;6.70;;
55364;SDS011;41245;45.384;20.390;2023-09-19T10:43:02;22.42;;;6.85;;
55364;SDS011;41245;45.384;20.390;2023-09-19T10:45:30;21.63;;;10.03;;
55364;SDS011;41245;45.384;20.390;2023-09-19T10:48:01;23.27;;;7.82;;
55364;SDS011;41245;45.384;20.390;2023-09-19T10:50:30;23.17;;;6.10;;
55364;SDS011;41245;45.384;20.390;2023-09-19T10:53:02;14.05;;;6.05;;
55364;SDS011;41245;45.384;20.390;2023-09-19T10:55:33;22.38;;;5.78;;
55364;SDS011;41245;45.384;20.390;2023-09-19T10:58:00;24.00;;;7.85;;
55364;SDS011;41245;45.384;20.390;2023-09-19T11:00:49;24.38;;;6.70;;
55364;SDS011;41245;45.384;20.390;2023-09-19T11:03:20;14.85;;;6.03;;
55364;SDS011;41245;45.384;20.390;2023-09-19T11:06:02;12.00;;;5.65;;
55364;SDS011;41245;45.384;20.390;2023-09-19T11:14:39;23.15;;;7.13;;
55364;SDS011;41245;45.384;20.390;2023-09-19T11:30:40;27.65;;;7.82;;
55364;SDS011;41245;45.384;20.390;2023-09-19T11:46:15;32.05;;;6.45;;
55364;SDS011;41245;45.384;20.390;2023-09-19T11:48:47;26.55;;;5.93;;
55364;SDS011;41245;45.384;20.390;2023-09-19T11:51:17;19.23;;;6.15;;
55364;SDS011;41245;45.384;20.390;2023-09-19T11:53:45;27.20;;;6.65;;
55364;SDS011;41245;45.384;20.390;2023-09-19T11:56:14;16.95;;;4.45;;
55364;SDS011;41245;45.384;20.390;2023-09-19T11:58:45;26.45;;;5.53;;
55364;SDS011;41245;45.384;20.390;2023-09-19T12:01:14;36.07;;;6.10;;
55364;SDS011;41245;45.384;20.390;2023-09-19T12:03:46;17.70;;;5.32;;
55364;SDS011;41245;45.384;20.390;2023-09-19T12:06:17;20.58;;;5.75;;
55364;SDS011;41245;45.384;20.390;2023-09-19T12:08:43;19.73;;;5.05;;
55364;SDS011;41245;45.384;20.390;2023-09-19T12:11:15;22.23;;;5.15;;
55364;SDS011;41245;45.384;20.390;2023-09-19T12:13:45;20.23;;;4.40;;
55364;SDS011;41245;45.384;20.390;2023-09-19T12:16:16;16.83;;;4.43;;
55364;SDS011;41245;45.384;20.390;2023-09-19T12:18:43;11.32;;;3.75;;
55364;SDS011;41245;45.384;20.390;2023-09-19T12:29:09;22.58;;;4.55;;
55364;SDS011;41245;45.384;20.390;2023-09-19T12:31:55;14.43;;;4.70;;
55364;SDS011;41245;45.384;20.390;2023-09-19T12:34:31;23.08;;;4.45;;
55364;SDS011;41245;45.384;20.390;2023-09-19T12:37:13;19.95;;;4.00;;
55364;SDS011;41245;45.384;20.390;2023-09-19T12:39:47;27.98;;;4.95;;
55364;SDS011;41245;45.384;20.390;2023-09-19T12:42:16;26.52;;;4.50;;
55364;SDS011;41245;45.384;20.390;2023-09-19T12:44:45;20.13;;;5.75;;
55364;SDS011;41245;45.384;20.390;2023-09-19T12:47:16;17.35;;;5.20;;
55364;SDS011;41245;45.384;20.390;2023-09-19T12:52:38;16.55;;;4.20;;
55364;SDS011;41245;45.384;20.390;2023-09-19T12:55:27;17.25;;;5.40;;
55364;SDS011;41245;45.384;20.390;2023-09-19T13:00:43;18.90;;;3.85;;
55364;SDS011;41245;45.384;20.390;2023-09-19T13:08:25;19.25;;;4.00;;
55364;SDS011;41245;45.384;20.390;2023-09-19T13:11:09;15.57;;;4.72;;
55364;SDS011;41245;45.384;20.390;2023-09-19T13:16:33;16.40;;;3.35;;
55364;SDS011;41245;45.384;20.390;2023-09-19T13:18:59;15.25;;;3.17;;
55364;SDS011;41245;45.384;20.390;2023-09-19T13:21:32;13.40;;;2.58;;
55364;SDS011;41245;45.384;20.390;2023-09-19T13:24:17;10.77;;;3.13;;
55364;SDS011;41245;45.384;20.390;2023-09-19T13:26:44;16.65;;;3.55;;
55364;SDS011;41245;45.384;20.390;2023-09-19T13:29:10;15.32;;;3.97;;
55364;SDS011;41245;45.384;20.390;2023-09-19T13:31:37;17.42;;;3.70;;
55364;SDS011;41245;45.384;20.390;2023-09-19T13:34:06;9.68;;;2.90;;
55364;SDS011;41245;45.384;20.390;2023-09-19T13:36:32;11.80;;;3.33;;
55364;SDS011;41245;45.384;20.390;2023-09-19T13:38:58;10.45;;;2.50;;
55364;SDS011;41245;45.384;20.390;2023-09-19T13:41:25;15.88;;;1.98;;
55364;SDS011;41245;45.384;20.390;2023-09-19T13:43:51;9.68;;;2.97;;
55364;SDS011;41245;45.384;20.390;2023-09-19T13:46:17;13.70;;;2.20;;
55364;SDS011;41245;45.384;20.390;2023-09-19T13:48:50;11.15;;;2.33;;
55364;SDS011;41245;45.384;20.390;2023-09-19T13:51:19;9.52;;;2.55;;
55364;SDS011;41245;45.384;20.390;2023-09-19T13:53:48;11.48;;;2.90;;
55364;SDS011;41245;45.384;20.390;2023-09-19T13:56:14;9.95;;;2.20;;
55364;SDS011;41245;45.384;20.390;2023-09-19T13:58:39;10.88;;;2.83;;
55364;SDS011;41245;45.384;20.390;2023-09-19T14:01:07;10.35;;;2.28;;
55364;SDS011;41245;45.384;20.390;2023-09-19T14:03:37;13.82;;;2.45;;
55364;SDS011;41245;45.384;20.390;2023-09-19T14:06:04;9.73;;;2.20;;
55364;SDS011;41245;45.384;20.390;2023-09-19T14:08:30;13.30;;;2.13;;
55364;SDS011;41245;45.384;20.390;2023-09-19T14:10:55;8.93;;;2.20;;
55364;SDS011;41245;45.384;20.390;2023-09-19T14:13:21;6.60;;;2.58;;
55364;SDS011;41245;45.384;20.390;2023-09-19T14:15:47;5.30;;;2.05;;
55364;SDS011;41245;45.384;20.390;2023-09-19T14:18:13;10.98;;;1.80;;
55364;SDS011;41245;45.384;20.390;2023-09-19T14:20:38;8.68;;;1.75;;
55364;SDS011;41245;45.384;20.390;2023-09-19T14:23:07;6.23;;;1.67;;
55364;SDS011;41245;45.384;20.390;2023-09-19T14:25:36;9.45;;;2.10;;
55364;SDS011;41245;45.384;20.390;2023-09-19T14:28:03;8.90;;;1.80;;
55364;SDS011;41245;45.384;20.390;2023-09-19T14:30:31;9.25;;;2.10;;
55364;SDS011;41245;45.384;20.390;2023-09-19T14:32:57;6.40;;;2.25;;
55364;SDS011;41245;45.384;20.390;2023-09-19T14:35:23;8.00;;;3.33;;
55364;SDS011;41245;45.384;20.390;2023-09-19T14:37:49;5.13;;;2.45;;
55364;SDS011;41245;45.384;20.390;2023-09-19T14:40:15;9.95;;;2.53;;
55364;SDS011;41245;45.384;20.390;2023-09-19T14:42:42;6.28;;;2.58;;
55364;SDS011;41245;45.384;20.390;2023-09-19T14:45:10;7.15;;;1.60;;
55364;SDS011;41245;45.384;20.390;2023-09-19T14:47:36;7.57;;;1.65;;
55364;SDS011;41245;45.384;20.390;2023-09-19T14:50:03;6.70;;;2.97;;
55364;SDS011;41245;45.384;20.390;2023-09-19T14:52:31;6.43;;;2.00;;
55364;SDS011;41245;45.384;20.390;2023-09-19T14:55:01;5.65;;;2.42;;
55364;SDS011;41245;45.384;20.390;2023-09-19T14:57:27;9.02;;;3.97;;
55364;SDS011;41245;45.384;20.390;2023-09-19T14:59:54;6.95;;;2.30;;
55364;SDS011;41245;45.384;20.390;2023-09-19T15:02:20;6.75;;;3.60;;
55364;SDS011;41245;45.384;20.390;2023-09-19T15:04:46;7.40;;;3.28;;
55364;SDS011;41245;45.384;20.390;2023-09-19T15:07:15;11.23;;;3.38;;
55364;SDS011;41245;45.384;20.390;2023-09-19T15:09:42;2.95;;;1.45;;
55364;SDS011;41245;45.384;20.390;2023-09-19T15:12:08;10.32;;;3.47;;
55364;SDS011;41245;45.384;20.390;2023-09-19T15:14:39;7.05;;;2.63;;
55364;SDS011;41245;45.384;20.390;2023-09-19T15:17:05;5.15;;;3.03;;
55364;SDS011;41245;45.384;20.390;2023-09-19T15:19:31;5.70;;;2.53;;
55364;SDS011;41245;45.384;20.390;2023-09-19T15:21:57;10.73;;;2.75;;
55364;SDS011;41245;45.384;20.390;2023-09-19T15:24:23;11.25;;;4.50;;
55364;SDS011;41245;45.384;20.390;2023-09-19T15:26:51;3.85;;;1.77;;
55364;SDS011;41245;45.384;20.390;2023-09-19T15:29:17;9.30;;;3.22;;
55364;SDS011;41245;45.384;20.390;2023-09-19T15:31:45;8.20;;;4.07;;
55364;SDS011;41245;45.384;20.390;2023-09-19T15:34:10;12.07;;;2.63;;
55364;SDS011;41245;45.384;20.390;2023-09-19T15:36:39;4.38;;;2.83;;
55364;SDS011;41245;45.384;20.390;2023-09-19T15:39:06;8.75;;;2.60;;
55364;SDS011;41245;45.384;20.390;2023-09-19T15:41:36;3.60;;;1.48;;
55364;SDS011;41245;45.384;20.390;2023-09-19T15:44:03;3.13;;;1.55;;
55364;SDS011;41245;45.384;20.390;2023-09-19T15:46:30;10.20;;;3.33;;
55364;SDS011;41245;45.384;20.390;2023-09-19T15:48:56;9.82;;;2.72;;
55364;SDS011;41245;45.384;20.390;2023-09-19T15:51:22;3.35;;;1.58;;